map of KRDK home
KRDK - Airport
Location
City:  Red Oak, Iowa, United States
Name:Red Oak Municipal Airport
ICAO:KRDK
FAA LID:RDK

Details
Type:Airport (Airfield)
Use:Public/Civil
Latitude:4100'39"N (41.010833)
Longitude:9515'32"W (-95.258860)
Datum:WGS 1984
Elevation:1045 ft (319 m)
Variation:1.98E (WMM2015 magnetic declination)
-0.09 annual change
Runways:3
Longest:5100 × 75 ft (1554 × 23 m), paved

Time
Time Zone:UTC-6 (DST-5)
Local Time:

Weather
METAR:KRDK 190255Z AUTO 00000KT 10SM SCT160 SCT180 M11/M13 A3015 RMK AO2

Related Locations
Nearby:
Farthest:YAUG: 10722 mi / 17255 km
Augusta [Augusta Airport], WA, AU

Find:

   beyond  
but within

Other Information
Maps:
NOTAMs:
Links:
Sources:

  
  • flag of United States
  • flag of Iowa
  

Sectional Chart

Flight Planning
at skyvector.com

Satellite Image

Google Maps Satellite view

 

Copyright © 2004-2018 Karl L. Swartz. All rights reserved.
The Great Circle Mapper name and logo are trademarks of the Great Circle Mapper.
All other trademarks mentioned herein belong to their respective owners.
Please see credits for attibutions and further copyright information.

  Follow gcmap on Facebook Follow gcmap on Twitter Follow gcmap on Google+ GCmap on LinkedIn

hCard Microformat

Geo Microformat